createdAt,value
2022-08-20T00:02:10.376Z,5.33
2022-08-20T00:04:39.420Z,4.60
2022-08-20T00:07:09.869Z,5.47
2022-08-20T00:09:43.859Z,4.70
2022-08-20T00:12:12.762Z,4.73
2022-08-20T00:14:43.036Z,5.53
2022-08-20T00:17:17.111Z,5.37
2022-08-20T00:19:43.923Z,4.90
2022-08-20T00:22:10.931Z,5.33
2022-08-20T00:24:41.546Z,5.83
2022-08-20T00:27:08.294Z,5.93
2022-08-20T00:29:38.088Z,6.13
2022-08-20T00:32:05.339Z,6.00
2022-08-20T00:34:32.099Z,5.23
2022-08-20T00:36:58.969Z,5.23
2022-08-20T00:39:26.245Z,5.83
2022-08-20T00:41:53.498Z,7.10
2022-08-20T00:44:24.711Z,5.93
2022-08-20T00:46:54.125Z,6.17
2022-08-20T00:49:28.028Z,6.40
2022-08-20T00:51:58.676Z,6.73
2022-08-20T00:54:35.343Z,6.97
2022-08-20T00:57:10.134Z,7.00
2022-08-20T00:59:40.569Z,7.77
2022-08-20T01:02:22.758Z,6.77
2022-08-20T01:04:56.066Z,6.70
2022-08-20T01:07:32.861Z,8.23
2022-08-20T01:10:13.433Z,8.57
2022-08-20T01:12:44.385Z,7.63
2022-08-20T01:15:15.472Z,6.90
2022-08-20T01:17:45.962Z,7.33
2022-08-20T01:20:21.923Z,7.27
2022-08-20T01:23:16.737Z,6.27
2022-08-20T01:25:49.291Z,6.27
2022-08-20T01:28:21.342Z,6.90
2022-08-20T01:30:54.481Z,6.87
2022-08-20T01:33:24.255Z,6.83
2022-08-20T01:35:53.082Z,7.30
2022-08-20T01:38:20.780Z,7.80
2022-08-20T01:41:24.590Z,9.00
2022-08-20T01:44:02.387Z,7.50
2022-08-20T01:46:43.749Z,8.60
2022-08-20T01:49:23.055Z,9.67
2022-08-20T01:51:52.628Z,8.60
2022-08-20T01:54:22.715Z,8.43
2022-08-20T01:56:55.301Z,9.33
2022-08-20T01:59:22.713Z,7.80
2022-08-20T02:01:49.574Z,7.53
2022-08-20T02:04:18.764Z,9.13
2022-08-20T02:06:56.783Z,9.70
2022-08-20T02:09:39.323Z,10.10
2022-08-20T02:12:08.583Z,10.50
2022-08-20T02:14:40.053Z,11.37
2022-08-20T02:17:07.068Z,12.00
2022-08-20T02:19:51.363Z,13.53
2022-08-20T02:22:50.541Z,11.73
2022-08-20T02:25:20.101Z,12.30
2022-08-20T02:27:54.739Z,13.27
2022-08-20T02:30:28.576Z,11.80
2022-08-20T02:32:56.910Z,11.57
2022-08-20T02:35:27.424Z,16.40
2022-08-20T02:37:55.464Z,10.80
2022-08-20T02:40:27.059Z,8.47
2022-08-20T02:42:58.393Z,8.03
2022-08-20T02:45:30.546Z,9.37
2022-08-20T02:48:00.360Z,9.30
2022-08-20T02:50:28.243Z,8.80
2022-08-20T02:52:55.642Z,8.90
2022-08-20T02:55:26.963Z,8.27
2022-08-20T02:57:57.904Z,6.73
2022-08-20T03:00:26.890Z,8.33
2022-08-20T03:02:53.831Z,8.03
2022-08-20T03:05:21.016Z,7.00
2022-08-20T03:07:50.606Z,5.80
2022-08-20T03:10:31.100Z,6.77
2022-08-20T03:13:01.390Z,6.70
2022-08-20T03:15:30.630Z,6.20
2022-08-20T03:17:57.811Z,6.50
2022-08-20T03:20:28.045Z,5.40
2022-08-20T03:22:55.395Z,5.93
2022-08-20T03:25:23.545Z,5.20
2022-08-20T03:27:54.297Z,5.47
2022-08-20T03:30:26.985Z,4.67
2022-08-20T03:32:57.650Z,6.30
2022-08-20T03:35:29.525Z,6.30
2022-08-20T03:37:57.892Z,5.37
2022-08-20T03:40:34.563Z,5.20
2022-08-20T03:43:02.052Z,5.43
2022-08-20T03:45:30.047Z,6.03
2022-08-20T03:47:59.992Z,6.73
2022-08-20T03:50:29.704Z,7.23
2022-08-20T03:53:00.528Z,4.77
2022-08-20T03:55:30.206Z,5.30
2022-08-20T03:58:01.108Z,5.83
2022-08-20T04:00:50.506Z,5.47
2022-08-20T04:03:17.892Z,6.13
2022-08-20T04:08:30.819Z,7.67
2022-08-20T04:11:00.129Z,6.10
2022-08-20T04:13:29.124Z,6.53
2022-08-20T04:15:56.889Z,6.83
2022-08-20T04:18:27.685Z,7.67
2022-08-20T04:20:54.593Z,6.50
2022-08-20T04:23:22.541Z,7.27
2022-08-20T04:25:59.442Z,6.43
2022-08-20T04:28:33.811Z,7.43
2022-08-20T04:31:02.217Z,7.70
2022-08-20T04:33:33.868Z,8.70
2022-08-20T04:36:03.111Z,8.57
2022-08-20T04:38:48.385Z,9.70
2022-08-20T04:41:29.380Z,12.17
2022-08-20T04:43:58.242Z,13.07
2022-08-20T04:46:29.164Z,11.77
2022-08-20T04:48:57.910Z,12.70
2022-08-20T04:51:28.160Z,14.00
2022-08-20T04:53:56.635Z,13.70
2022-08-20T04:56:33.885Z,14.67
2022-08-20T04:59:02.177Z,13.03
2022-08-20T05:01:29.711Z,13.17
2022-08-20T05:03:58.183Z,14.20
2022-08-20T05:06:28.975Z,13.77
2022-08-20T05:08:58.176Z,15.03
2022-08-20T05:11:35.210Z,14.60
2022-08-20T05:14:05.974Z,15.97
2022-08-20T05:16:40.390Z,16.30
2022-08-20T05:19:13.508Z,15.00
2022-08-20T05:21:41.247Z,15.97
2022-08-20T05:24:10.209Z,16.80
2022-08-20T05:26:39.626Z,18.43
2022-08-20T05:29:07.761Z,16.83
2022-08-20T05:31:42.363Z,18.57
2022-08-20T05:34:12.880Z,14.67
2022-08-20T05:36:51.610Z,18.87
2022-08-20T05:39:23.088Z,16.87
2022-08-20T05:41:51.447Z,17.97
2022-08-20T05:44:19.805Z,14.47
2022-08-20T05:46:48.307Z,16.10
2022-08-20T05:49:20.022Z,15.13
2022-08-20T05:51:47.741Z,15.63
2022-08-20T05:54:14.780Z,14.60
2022-08-20T05:56:42.005Z,16.30
2022-08-20T05:59:10.603Z,14.17
2022-08-20T06:01:39.215Z,14.93
2022-08-20T06:04:25.549Z,10.93
2022-08-20T06:07:12.552Z,9.67
2022-08-20T06:09:44.478Z,10.57
2022-08-20T06:12:11.338Z,9.80
2022-08-20T06:14:38.239Z,11.30
2022-08-20T06:17:13.371Z,12.73
2022-08-20T06:19:45.022Z,13.67
2022-08-20T06:22:19.703Z,15.63
2022-08-20T06:24:48.182Z,14.57
2022-08-20T06:27:18.826Z,11.40
2022-08-20T06:29:48.788Z,12.93
2022-08-20T06:32:15.663Z,13.50
2022-08-20T06:34:50.350Z,11.77
2022-08-20T06:37:21.736Z,11.73
2022-08-20T06:39:48.792Z,11.83
2022-08-20T06:42:21.059Z,11.53
2022-08-20T06:44:50.802Z,12.00
2022-08-20T06:47:22.589Z,10.50
2022-08-20T06:49:49.381Z,11.90
2022-08-20T06:52:17.173Z,11.73
2022-08-20T06:54:46.111Z,13.30
2022-08-20T06:57:13.180Z,11.50
2022-08-20T06:59:40.559Z,11.57
2022-08-20T07:02:11.048Z,10.70
2022-08-20T07:04:48.084Z,10.03
2022-08-20T07:07:28.385Z,14.80
2022-08-20T07:10:23.111Z,12.97
2022-08-20T07:12:51.075Z,10.43
2022-08-20T07:15:21.101Z,12.77
2022-08-20T07:18:04.278Z,12.93
2022-08-20T07:20:35.148Z,10.60
2022-08-20T07:23:02.524Z,9.63
2022-08-20T07:25:30.895Z,10.10
2022-08-20T07:28:13.084Z,10.70
2022-08-20T07:30:59.576Z,10.73
2022-08-20T07:33:40.501Z,9.83
2022-08-20T07:36:09.151Z,10.47
2022-08-20T07:38:37.008Z,9.47
2022-08-20T07:41:17.568Z,9.07
2022-08-20T07:43:48.170Z,9.23
2022-08-20T07:46:17.957Z,10.30
2022-08-20T07:48:52.422Z,11.13
2022-08-20T07:51:25.747Z,10.73
2022-08-20T07:53:52.850Z,11.20
2022-08-20T07:56:22.835Z,11.00
2022-08-20T07:58:55.490Z,11.83
2022-08-20T08:01:31.417Z,10.67
2022-08-20T08:04:01.272Z,9.90
2022-08-20T08:06:32.671Z,12.60
2022-08-20T08:09:04.544Z,11.43
2022-08-20T08:11:34.741Z,10.97
2022-08-20T08:14:03.243Z,10.77
2022-08-20T08:16:34.530Z,10.17
2022-08-20T08:19:01.875Z,10.47
2022-08-20T08:21:31.853Z,10.33
2022-08-20T08:23:59.411Z,11.50
2022-08-20T08:26:28.927Z,10.27
2022-08-20T08:28:59.290Z,10.43
2022-08-20T08:31:26.789Z,9.87
2022-08-20T08:33:54.132Z,10.47
2022-08-20T08:36:20.879Z,10.40
2022-08-20T08:38:48.783Z,10.10
2022-08-20T08:41:51.940Z,11.87
2022-08-20T08:44:23.294Z,12.57
2022-08-20T08:46:56.548Z,10.07
2022-08-20T08:49:35.195Z,9.77
2022-08-20T08:52:22.953Z,10.70
2022-08-20T08:54:55.084Z,9.83
2022-08-20T08:57:26.093Z,9.30
2022-08-20T09:00:03.826Z,9.87
2022-08-20T09:02:33.579Z,10.43
2022-08-20T09:05:05.296Z,8.97
2022-08-20T09:07:34.259Z,11.70
2022-08-20T09:10:04.526Z,11.47
2022-08-20T09:12:31.548Z,10.17
2022-08-20T09:15:01.481Z,10.17
2022-08-20T09:17:28.623Z,11.00
2022-08-20T09:19:55.437Z,11.13
2022-08-20T09:22:27.082Z,16.37
2022-08-20T09:24:54.424Z,10.03
2022-08-20T09:27:23.848Z,9.63
2022-08-20T09:29:54.057Z,11.67
2022-08-20T09:32:23.916Z,11.07
2022-08-20T09:35:09.243Z,10.03
2022-08-20T09:37:37.808Z,9.57
2022-08-20T09:40:06.536Z,9.57
2022-08-20T09:42:42.738Z,9.33
2022-08-20T09:45:11.529Z,8.83
2022-08-20T09:47:39.788Z,10.33
2022-08-20T09:50:30.494Z,10.37
2022-08-20T09:52:59.490Z,8.83
2022-08-20T09:55:37.283Z,8.87
2022-08-20T09:58:18.849Z,9.43
2022-08-20T10:00:46.111Z,8.43
2022-08-20T10:03:13.306Z,9.53
2022-08-20T10:05:40.261Z,8.70
2022-08-20T10:08:18.461Z,8.57
2022-08-20T10:10:45.268Z,9.53
2022-08-20T10:13:13.292Z,8.20
2022-08-20T10:15:42.831Z,7.93
2022-08-20T10:18:12.322Z,9.70
2022-08-20T10:20:41.957Z,8.03
2022-08-20T10:23:08.897Z,10.53
2022-08-20T10:25:38.278Z,8.50
2022-08-20T10:28:08.152Z,8.87
2022-08-20T10:30:35.681Z,7.83
2022-08-20T10:33:02.677Z,8.23
2022-08-20T10:35:29.928Z,8.43
2022-08-20T10:38:03.234Z,8.83
2022-08-20T10:40:33.265Z,8.13
2022-08-20T10:43:00.122Z,8.43
2022-08-20T10:45:26.923Z,7.93
2022-08-20T10:47:53.750Z,8.43
2022-08-20T10:50:30.614Z,8.40
2022-08-20T10:52:58.123Z,8.60
2022-08-20T10:55:25.584Z,7.87
2022-08-20T10:57:52.435Z,7.83
2022-08-20T11:00:22.754Z,11.47
2022-08-20T11:02:49.897Z,8.07
2022-08-20T11:05:22.979Z,7.50
2022-08-20T11:07:56.178Z,8.97
2022-08-20T11:10:29.236Z,7.73
2022-08-20T11:12:56.974Z,7.80
2022-08-20T11:15:24.079Z,7.87
2022-08-20T11:17:51.368Z,6.83
2022-08-20T11:20:27.942Z,7.87
2022-08-20T11:22:55.615Z,8.37
2022-08-20T11:25:22.445Z,6.90
2022-08-20T11:27:52.966Z,7.77
2022-08-20T11:30:24.676Z,7.60
2022-08-20T11:32:51.593Z,8.13
2022-08-20T11:35:48.081Z,8.13
2022-08-20T11:38:13.061Z,8.10
2022-08-20T11:40:40.426Z,9.00
2022-08-20T11:43:15.942Z,7.73
2022-08-20T11:45:49.924Z,7.50
2022-08-20T11:48:16.972Z,7.47
2022-08-20T11:50:44.532Z,7.50
2022-08-20T11:53:11.424Z,8.97
2022-08-20T11:55:38.705Z,7.33
2022-08-20T11:58:07.945Z,8.20
2022-08-20T12:00:37.098Z,7.80
2022-08-20T12:03:09.507Z,7.60
2022-08-20T12:05:47.025Z,7.80
2022-08-20T12:08:26.644Z,8.53
2022-08-20T12:10:54.899Z,9.30
2022-08-20T12:13:25.265Z,8.00
2022-08-20T12:15:59.426Z,8.90
2022-08-20T12:18:27.210Z,9.10
2022-08-20T12:20:53.971Z,9.20
2022-08-20T12:23:21.128Z,9.33
2022-08-20T12:25:48.408Z,9.37
2022-08-20T12:28:15.280Z,10.17
2022-08-20T12:30:42.377Z,9.70
2022-08-20T12:33:09.148Z,9.40
2022-08-20T12:35:36.110Z,10.20
2022-08-20T12:38:04.932Z,10.27
2022-08-20T12:40:33.195Z,9.43
2022-08-20T12:43:02.016Z,9.90
2022-08-20T12:45:29.872Z,9.30
2022-08-20T12:48:02.584Z,10.67
2022-08-20T12:50:34.214Z,10.53
2022-08-20T12:53:01.949Z,11.23
2022-08-20T12:55:29.606Z,12.10
2022-08-20T12:58:00.360Z,11.53
2022-08-20T13:00:31.898Z,10.43
2022-08-20T13:03:01.257Z,11.43
2022-08-20T13:05:29.224Z,10.97
2022-08-20T13:07:56.284Z,10.97
2022-08-20T13:10:32.813Z,10.93
2022-08-20T13:13:02.592Z,10.30
2022-08-20T13:15:30.782Z,10.27
2022-08-20T13:18:00.496Z,10.90
2022-08-20T13:20:34.072Z,12.30
2022-08-20T13:23:02.911Z,12.60
2022-08-20T13:25:32.344Z,9.73
2022-08-20T13:28:02.288Z,10.97
2022-08-20T13:30:29.351Z,10.93
2022-08-20T13:32:56.273Z,11.73
2022-08-20T13:35:26.205Z,9.80
2022-08-20T13:37:53.565Z,10.00
2022-08-20T13:40:20.494Z,11.17
2022-08-20T13:42:47.394Z,10.23
2022-08-20T13:45:14.254Z,9.33
2022-08-20T13:47:42.546Z,9.77
2022-08-20T13:50:17.179Z,10.17
2022-08-20T13:53:02.864Z,10.77
2022-08-20T13:55:31.338Z,11.70
2022-08-20T13:58:05.852Z,13.07
2022-08-20T14:00:33.257Z,11.63
2022-08-20T14:03:05.822Z,12.30
2022-08-20T14:05:35.481Z,12.87
2022-08-20T14:08:22.833Z,12.67
2022-08-20T14:10:51.879Z,12.13
2022-08-20T14:13:22.111Z,12.70
2022-08-20T14:15:49.164Z,12.87
2022-08-20T14:18:19.944Z,12.90
2022-08-20T14:20:46.878Z,13.00
2022-08-20T14:23:17.373Z,13.03
2022-08-20T14:25:49.479Z,12.80
2022-08-20T14:28:24.449Z,12.40
2022-08-20T14:30:53.213Z,14.93
2022-08-20T14:33:24.313Z,13.03
2022-08-20T14:35:51.603Z,12.57
2022-08-20T14:38:21.419Z,13.57
2022-08-20T14:40:52.776Z,12.87
2022-08-20T14:43:19.800Z,14.30
2022-08-20T14:45:46.873Z,13.97
2022-08-20T14:48:14.953Z,14.33
2022-08-20T14:50:41.803Z,13.43
2022-08-20T14:53:11.217Z,13.83
2022-08-20T14:55:40.796Z,12.87
2022-08-20T14:58:12.591Z,12.60
2022-08-20T15:00:40.070Z,13.77
2022-08-20T15:03:09.684Z,15.60
2022-08-20T15:05:39.644Z,14.80
2022-08-20T15:08:07.533Z,15.63
2022-08-20T15:10:36.990Z,15.07
2022-08-20T15:13:04.050Z,15.97
2022-08-20T15:15:31.163Z,15.30
2022-08-20T15:18:02.641Z,15.47
2022-08-20T15:20:33.531Z,12.60
2022-08-20T15:23:00.696Z,15.23
2022-08-20T15:25:37.735Z,15.87
2022-08-20T15:28:08.614Z,15.50
2022-08-20T15:30:37.629Z,16.40
2022-08-20T15:33:07.730Z,15.17
2022-08-20T15:35:37.844Z,15.10
2022-08-20T15:38:04.645Z,14.63
2022-08-20T15:40:33.312Z,17.27
2022-08-20T15:43:02.832Z,15.37
2022-08-20T15:45:33.737Z,17.57
2022-08-20T15:48:15.805Z,12.43
2022-08-20T15:50:54.511Z,12.20
2022-08-20T15:53:30.978Z,14.10
2022-08-20T15:56:07.856Z,12.33
2022-08-20T15:58:58.861Z,11.60
2022-08-20T16:01:46.514Z,10.70
2022-08-20T16:04:22.321Z,11.60
2022-08-20T16:07:17.392Z,10.30
2022-08-20T16:09:54.079Z,10.43
2022-08-20T16:12:29.985Z,12.10
2022-08-20T16:15:08.217Z,10.83
2022-08-20T16:17:44.192Z,11.73
2022-08-20T16:20:47.908Z,10.53
2022-08-20T16:23:21.376Z,11.60
2022-08-20T16:26:15.542Z,12.70
2022-08-20T16:29:11.280Z,12.03
2022-08-20T16:32:06.082Z,11.10
2022-08-20T16:34:54.407Z,12.33
2022-08-20T16:37:41.379Z,13.73
2022-08-20T16:40:29.339Z,13.47
2022-08-20T16:42:59.163Z,13.07
2022-08-20T16:45:51.093Z,12.70
2022-08-20T16:48:18.978Z,14.33
2022-08-20T16:51:01.480Z,11.40
2022-08-20T16:53:28.489Z,11.17
2022-08-20T16:55:58.487Z,11.73
2022-08-20T16:58:34.386Z,11.40
2022-08-20T17:01:09.638Z,11.20
2022-08-20T17:03:40.008Z,11.33
2022-08-20T17:06:16.570Z,11.10
2022-08-20T17:08:51.390Z,11.73
2022-08-20T17:11:32.606Z,16.17
2022-08-20T17:14:07.329Z,11.90
2022-08-20T17:17:00.343Z,12.30
2022-08-20T17:19:36.434Z,11.03
2022-08-20T17:22:17.944Z,12.53
2022-08-20T17:24:45.025Z,17.67
2022-08-20T17:27:16.309Z,12.27
2022-08-20T17:29:56.246Z,18.30
2022-08-20T17:32:31.230Z,12.23
2022-08-20T17:35:00.630Z,12.13
2022-08-20T17:37:39.800Z,12.07
2022-08-20T17:40:31.251Z,14.60
2022-08-20T17:43:01.964Z,15.10
2022-08-20T17:45:37.887Z,14.17
2022-08-20T17:48:08.491Z,12.53
2022-08-20T17:50:39.495Z,12.90
2022-08-20T17:56:28.769Z,13.60
2022-08-20T17:59:10.458Z,13.53
2022-08-20T18:01:40.060Z,13.03
2022-08-20T18:04:07.318Z,12.23
2022-08-20T18:07:11.836Z,12.33
2022-08-20T18:09:51.409Z,12.23
2022-08-20T18:12:34.634Z,12.93
2022-08-20T18:15:21.253Z,12.23
2022-08-20T18:18:09.523Z,12.23
2022-08-20T18:20:42.914Z,12.70
2022-08-20T18:23:22.058Z,12.83
2022-08-20T18:26:11.017Z,13.20
2022-08-20T18:29:09.305Z,14.73
2022-08-20T18:32:20.714Z,14.03
2022-08-20T18:34:48.826Z,13.90
2022-08-20T18:37:18.632Z,14.53
2022-08-20T18:39:47.827Z,14.90
2022-08-20T18:42:33.970Z,16.00
2022-08-20T18:45:01.346Z,15.03
2022-08-20T18:47:34.149Z,14.97
2022-08-20T18:50:21.487Z,15.07
2022-08-20T18:53:05.404Z,16.47
2022-08-20T18:55:41.630Z,18.00
2022-08-20T18:58:15.062Z,19.37
2022-08-20T19:00:52.137Z,16.80
2022-08-20T19:03:29.084Z,17.33
2022-08-20T19:06:13.231Z,16.57
2022-08-20T19:09:20.141Z,17.30
2022-08-20T19:11:52.817Z,14.67
2022-08-20T19:14:49.742Z,14.97
2022-08-20T19:17:23.556Z,20.03
2022-08-20T19:20:06.089Z,15.40
2022-08-20T19:22:35.830Z,13.77
2022-08-20T19:25:02.661Z,14.83
2022-08-20T19:27:33.075Z,14.40
2022-08-20T19:29:59.899Z,14.77
2022-08-20T19:32:30.338Z,16.47
2022-08-20T19:35:04.616Z,18.80
2022-08-20T19:37:44.278Z,17.87
2022-08-20T19:40:29.303Z,16.47
2022-08-20T19:42:59.657Z,17.63
2022-08-20T19:45:30.320Z,17.50
2022-08-20T19:48:27.185Z,17.97
2022-08-20T19:51:08.739Z,15.77
2022-08-20T19:53:46.732Z,19.83
2022-08-20T19:56:19.589Z,15.00
2022-08-20T19:59:02.302Z,17.97
2022-08-20T20:01:29.506Z,17.00
2022-08-20T20:04:14.697Z,15.43
2022-08-20T20:06:45.792Z,15.30
2022-08-20T20:09:27.906Z,17.20
2022-08-20T20:11:57.892Z,19.00
2022-08-20T20:14:29.761Z,18.37
2022-08-20T20:16:57.367Z,18.40
2022-08-20T20:19:27.510Z,20.33
2022-08-20T20:22:17.951Z,19.97
2022-08-20T20:25:02.638Z,20.23
2022-08-20T20:27:32.317Z,20.23
2022-08-20T20:30:12.599Z,19.30
2022-08-20T20:32:48.587Z,19.57
2022-08-20T20:35:31.350Z,21.50
2022-08-20T20:38:05.842Z,20.63
2022-08-20T20:40:43.749Z,20.33
2022-08-20T20:43:21.910Z,23.77
2022-08-20T20:45:59.419Z,19.97
2022-08-20T20:48:33.859Z,24.33
2022-08-20T20:51:11.867Z,21.33
2022-08-20T20:53:53.299Z,22.40
2022-08-20T20:56:45.120Z,22.60
2022-08-20T20:59:12.311Z,22.80
2022-08-20T21:01:49.182Z,23.60
2022-08-20T21:04:19.389Z,20.70
2022-08-20T21:06:48.936Z,22.63
2022-08-20T21:09:20.743Z,21.70
2022-08-20T21:11:48.243Z,25.40
2022-08-20T21:14:15.806Z,20.60
2022-08-20T21:16:43.844Z,20.87
2022-08-20T21:19:11.165Z,23.30
2022-08-20T21:21:39.287Z,22.87
2022-08-20T21:24:07.661Z,22.80
2022-08-20T21:26:35.110Z,20.97
2022-08-20T21:29:02.221Z,25.07
2022-08-20T21:31:35.364Z,23.30
2022-08-20T21:34:02.358Z,25.20
2022-08-20T21:36:37.286Z,25.63
2022-08-20T21:39:04.791Z,23.97
2022-08-20T21:41:32.446Z,22.00
2022-08-20T21:44:10.627Z,19.83
2022-08-20T21:46:38.089Z,20.20
2022-08-20T21:49:08.437Z,21.50
2022-08-20T21:51:38.704Z,22.37
2022-08-20T21:54:08.249Z,22.40
2022-08-20T21:56:36.332Z,22.43
2022-08-20T21:59:08.772Z,19.63
2022-08-20T22:01:37.760Z,22.60
2022-08-20T22:04:07.651Z,22.07
2022-08-20T22:06:38.546Z,23.10
2022-08-20T22:09:05.998Z,18.50
2022-08-20T22:11:41.356Z,17.90
2022-08-20T22:14:10.448Z,20.60
2022-08-20T22:16:38.337Z,19.53
2022-08-20T22:19:15.376Z,21.17
2022-08-20T22:21:46.385Z,20.87
2022-08-20T22:24:13.960Z,21.87
2022-08-20T22:26:42.704Z,23.37
2022-08-20T22:29:11.676Z,20.40
2022-08-20T22:31:41.329Z,24.77
2022-08-20T22:34:09.356Z,21.90
2022-08-20T22:36:36.767Z,22.17
2022-08-20T22:39:05.199Z,24.10
2022-08-20T22:41:35.634Z,20.33
2022-08-20T22:44:06.979Z,22.70
2022-08-20T22:46:44.993Z,24.33
2022-08-20T22:49:17.832Z,21.50
2022-08-20T22:51:44.970Z,22.97
2022-08-20T22:54:19.900Z,20.53
2022-08-20T22:56:46.866Z,19.60
2022-08-20T22:59:16.666Z,19.33
2022-08-20T23:01:45.286Z,20.53
2022-08-20T23:04:36.748Z,21.57
2022-08-20T23:07:05.202Z,19.57
2022-08-20T23:09:32.439Z,21.93
2022-08-20T23:11:59.387Z,17.90
2022-08-20T23:14:26.857Z,18.53
2022-08-20T23:17:21.423Z,18.07
2022-08-20T23:19:54.835Z,18.17
2022-08-20T23:22:22.952Z,18.17
2022-08-20T23:27:40.111Z,18.30
2022-08-20T23:30:07.831Z,18.07
2022-08-20T23:32:37.332Z,19.50
2022-08-20T23:35:05.229Z,25.40
2022-08-20T23:37:44.633Z,21.63
2022-08-20T23:40:14.666Z,18.20
2022-08-20T23:42:42.141Z,20.83
2022-08-20T23:45:09.998Z,17.23
2022-08-20T23:47:37.739Z,19.97
2022-08-20T23:50:12.555Z,18.70
2022-08-20T23:52:39.585Z,17.80
2022-08-20T23:55:13.341Z,17.53
2022-08-20T23:57:40.264Z,16.80
